createdAt,value
2019-02-08T00:04:47.024Z,970.8
2019-02-08T00:14:50.514Z,970.7
2019-02-08T00:24:54.009Z,970.7
2019-02-08T00:34:57.455Z,970.7
2019-02-08T00:45:01.000Z,970.9
2019-02-08T00:55:04.422Z,963.2
2019-02-08T01:05:07.847Z,963.3
2019-02-08T01:15:12.007Z,963.4
2019-02-08T01:25:15.575Z,963.5
2019-02-08T01:35:18.989Z,963.7
2019-02-08T01:45:22.391Z,963.7
2019-02-08T01:55:25.819Z,963.7
2019-02-08T02:05:29.259Z,963.5
2019-02-08T02:15:32.688Z,963.6
2019-02-08T02:25:36.146Z,963.7
2019-02-08T02:35:39.636Z,963.6
2019-02-08T02:45:43.093Z,963.6
2019-02-08T02:55:46.554Z,963.8
2019-02-08T03:05:49.974Z,963.9
2019-02-08T03:15:53.420Z,964
2019-02-08T03:25:56.870Z,963.7
2019-02-08T03:36:00.309Z,963.7
2019-02-08T03:46:03.775Z,963.6
2019-02-08T03:56:07.232Z,963.7
2019-02-08T04:06:10.653Z,963.7
2019-02-08T04:16:14.054Z,963.7
2019-02-08T04:26:17.506Z,963.7
2019-02-08T04:36:20.949Z,963.7
2019-02-08T04:46:24.374Z,963.6
2019-02-08T04:56:27.809Z,963.6
2019-02-08T05:06:31.239Z,963.6
2019-02-08T05:16:34.681Z,963.5
2019-02-08T05:26:38.112Z,963.7
2019-02-08T05:36:41.594Z,963.9
2019-02-08T05:46:45.008Z,963.8
2019-02-08T05:56:48.437Z,964
2019-02-08T06:06:51.892Z,963.8
2019-02-08T06:16:55.329Z,963.9
2019-02-08T06:26:58.773Z,964.1
2019-02-08T06:37:02.202Z,964.6
2019-02-08T06:47:05.609Z,964.6
2019-02-08T06:57:09.023Z,964.4
2019-02-08T07:07:12.439Z,964.3
2019-02-08T07:17:15.845Z,964.4
2019-02-08T07:27:19.283Z,963.4
2019-02-08T07:37:22.683Z,970.5
2019-02-08T07:47:26.106Z,968.4
2019-02-08T07:57:29.519Z,967.7
2019-02-08T08:07:32.937Z,967.5
2019-02-08T08:17:36.362Z,966.9
2019-02-08T08:27:39.813Z,965.8
2019-02-08T08:37:43.238Z,964.4
2019-02-08T08:47:46.671Z,963.5
2019-02-08T08:57:50.102Z,970.3
2019-02-08T09:07:53.525Z,969.5
2019-02-08T09:17:56.928Z,969.1
2019-02-08T09:28:00.352Z,969
2019-02-08T09:38:03.808Z,969.3
2019-02-08T09:48:07.215Z,969
2019-02-08T09:58:10.648Z,969.1
2019-02-08T10:08:14.042Z,968.9
2019-02-08T10:18:17.472Z,968.6
2019-02-08T10:28:20.870Z,969
2019-02-08T10:38:24.345Z,969
2019-02-08T10:48:27.771Z,968.6
2019-02-08T10:58:31.218Z,969.1
2019-02-08T11:08:34.647Z,969
2019-02-08T11:18:38.057Z,968.9
2019-02-08T11:28:41.514Z,968.8
2019-02-08T11:38:44.917Z,968.6
2019-02-08T11:48:48.389Z,968.4
2019-02-08T11:58:51.814Z,968.3
2019-02-08T12:08:56.227Z,968.2
2019-02-08T12:18:59.629Z,967.6
2019-02-08T12:29:03.028Z,967.4
2019-02-08T12:39:06.459Z,967.4
2019-02-08T12:49:09.899Z,967.3
2019-02-08T12:59:13.305Z,967.3
2019-02-08T13:09:16.713Z,967.1
2019-02-08T13:19:20.161Z,967
2019-02-08T13:29:23.583Z,966.6
2019-02-08T13:39:27.032Z,966.6
2019-02-08T13:49:30.486Z,967.1
2019-02-08T13:59:33.940Z,966.8
2019-02-08T14:09:37.412Z,959.6
2019-02-08T14:19:40.850Z,959.8
2019-02-08T14:29:44.302Z,960
2019-02-08T14:39:47.719Z,959.6
2019-02-08T14:49:51.145Z,959.8
2019-02-08T14:59:54.557Z,959.2
2019-02-08T15:09:57.974Z,959.3
2019-02-08T15:20:01.424Z,959.3
2019-02-08T15:30:04.859Z,959.4
2019-02-08T15:40:08.246Z,959.4
2019-02-08T15:50:11.691Z,959.4
2019-02-08T16:00:15.095Z,959.7
2019-02-08T16:10:18.530Z,959.6
2019-02-08T16:20:21.932Z,959.6
2019-02-08T16:30:25.378Z,959.8
2019-02-08T16:40:28.782Z,959.9
2019-02-08T16:50:32.199Z,960.2
2019-02-08T17:00:35.622Z,960.5
2019-02-08T17:10:39.049Z,960.9
2019-02-08T17:20:42.479Z,960.8
2019-02-08T17:30:45.898Z,961.1
2019-02-08T17:40:49.287Z,961.2
2019-02-08T17:50:52.709Z,961.3
2019-02-08T18:00:56.119Z,961.3
2019-02-08T18:10:59.560Z,961.6
2019-02-08T18:21:02.986Z,961.8
2019-02-08T18:31:06.415Z,962.2
2019-02-08T18:41:09.839Z,962.4
2019-02-08T18:51:13.264Z,962.5
2019-02-08T19:01:16.659Z,962.8
2019-02-08T19:11:20.084Z,962.7
2019-02-08T19:21:23.496Z,962.9
2019-02-08T19:31:26.895Z,963
2019-02-08T19:41:30.310Z,963.3
2019-02-08T19:51:33.734Z,963.4
2019-02-08T20:01:37.177Z,963.5
2019-02-08T20:11:40.578Z,963.4
2019-02-08T20:21:44.018Z,963.7
2019-02-08T20:31:47.428Z,963.8
2019-02-08T20:41:50.856Z,963.5
2019-02-08T20:51:54.286Z,963.6
2019-02-08T21:01:57.694Z,963.8
2019-02-08T21:12:01.126Z,963.6
2019-02-08T21:22:04.563Z,963.9
2019-02-08T21:32:08.008Z,963.8
2019-02-08T21:42:11.455Z,963.9
2019-02-08T21:52:14.870Z,963.9
2019-02-08T22:02:18.650Z,963.8
2019-02-08T22:12:22.099Z,963.8
2019-02-08T22:22:25.541Z,963.9
2019-02-08T22:32:28.999Z,964
2019-02-08T22:42:32.463Z,964.1
2019-02-08T22:52:35.917Z,964
2019-02-08T23:02:39.347Z,956.7
2019-02-08T23:12:42.782Z,956.6
2019-02-08T23:22:46.212Z,957
2019-02-08T23:32:49.618Z,956.9
2019-02-08T23:42:53.062Z,956.7
2019-02-08T23:52:56.479Z,956.4
